sensor_id;sensor_type;location;lat;lon;timestamp;pressure;altitude;pressure_sealevel;temperature;humidity
56074;BME280;41950;55.840;37.442;2023-09-19T00:01:34;100171.91;;;10.91;98.85
56074;BME280;41950;55.840;37.442;2023-09-19T00:04:02;100178.78;;;10.95;98.51
56074;BME280;41950;55.840;37.442;2023-09-19T00:06:29;100195.19;;;11.01;98.11
56074;BME280;41950;55.840;37.442;2023-09-19T00:08:57;100194.34;;;10.99;97.89
56074;BME280;41950;55.840;37.442;2023-09-19T00:11:26;100206.47;;;11.00;97.72
56074;BME280;41950;55.840;37.442;2023-09-19T00:13:53;100206.47;;;10.99;97.80
56074;BME280;41950;55.840;37.442;2023-09-19T00:16:18;100211.66;;;10.99;97.53
56074;BME280;41950;55.840;37.442;2023-09-19T00:18:44;100166.09;;;10.70;97.20
56074;BME280;41950;55.840;37.442;2023-09-19T00:21:12;100167.78;;;10.73;97.02
56074;BME280;41950;55.840;37.442;2023-09-19T00:23:38;100199.59;;;10.92;97.06
56074;BME280;41950;55.840;37.442;2023-09-19T00:26:11;100196.97;;;10.98;96.71
56074;BME280;41950;55.840;37.442;2023-09-19T00:28:39;100179.69;;;10.92;96.40
56074;BME280;41950;55.840;37.442;2023-09-19T00:31:08;100198.66;;;11.02;96.38
56074;BME280;41950;55.840;37.442;2023-09-19T00:33:35;100158.28;;;10.73;95.99
56074;BME280;41950;55.840;37.442;2023-09-19T00:36:03;100183.19;;;10.88;95.99
56074;BME280;41950;55.840;37.442;2023-09-19T00:38:31;100188.31;;;10.94;95.95
56074;BME280;41950;55.840;37.442;2023-09-19T00:40:57;100202.97;;;11.01;96.01
56074;BME280;41950;55.840;37.442;2023-09-19T00:43:27;100195.22;;;10.95;95.93
56074;BME280;41950;55.840;37.442;2023-09-19T00:45:57;100199.53;;;10.99;96.07
56074;BME280;41950;55.840;37.442;2023-09-19T00:48:24;100165.16;;;10.76;95.90
56074;BME280;41950;55.840;37.442;2023-09-19T00:50:53;100206.47;;;11.00;95.91
56074;BME280;41950;55.840;37.442;2023-09-19T00:53:22;100182.34;;;10.88;95.62
56074;BME280;41950;55.840;37.442;2023-09-19T00:55:50;100164.34;;;10.72;95.82
56074;BME280;41950;55.840;37.442;2023-09-19T00:58:18;100178.03;;;10.85;95.58
56074;BME280;41950;55.840;37.442;2023-09-19T01:00:45;100167.75;;;10.77;95.18
56074;BME280;41950;55.840;37.442;2023-09-19T01:03:11;100201.28;;;10.99;95.35
56074;BME280;41950;55.840;37.442;2023-09-19T01:05:39;100182.38;;;10.84;95.25
56074;BME280;41950;55.840;37.442;2023-09-19T01:08:05;100198.69;;;10.97;95.08
56074;BME280;41950;55.840;37.442;2023-09-19T01:10:33;100197.81;;;10.95;95.30
56074;BME280;41950;55.840;37.442;2023-09-19T01:13:07;100154.78;;;10.74;94.63
56074;BME280;41950;55.840;37.442;2023-09-19T01:15:48;100153.09;;;10.72;94.20
56074;BME280;41950;55.840;37.442;2023-09-19T01:23:27;100192.63;;;10.98;93.59
56074;BME280;41950;55.840;37.442;2023-09-19T01:28:32;100195.22;;;11.00;93.43
56074;BME280;41950;55.840;37.442;2023-09-19T01:31:03;100182.25;;;10.97;93.07
56074;BME280;41950;55.840;37.442;2023-09-19T01:33:55;100182.16;;;11.06;92.74
56074;BME280;41950;55.840;37.442;2023-09-19T01:36:23;100183.09;;;10.99;92.82
56074;BME280;41950;55.840;37.442;2023-09-19T01:38:50;100190.81;;;11.06;92.73
56074;BME280;41950;55.840;37.442;2023-09-19T01:41:26;100186.47;;;11.05;92.64
56074;BME280;41950;55.840;37.442;2023-09-19T01:43:52;100185.66;;;11.03;92.82
56074;BME280;41950;55.840;37.442;2023-09-19T01:46:29;100185.59;;;11.08;92.42
56074;BME280;41950;55.840;37.442;2023-09-19T01:49:15;100164.00;;;11.03;92.41
56074;BME280;41950;55.840;37.442;2023-09-19T01:51:53;100172.59;;;11.08;92.11
56074;BME280;41950;55.840;37.442;2023-09-19T01:54:31;100140.72;;;10.92;92.20
56074;BME280;41950;55.840;37.442;2023-09-19T01:57:14;100164.00;;;11.03;92.43
56074;BME280;41950;55.840;37.442;2023-09-19T01:59:47;100145.94;;;10.91;92.59
56074;BME280;41950;55.840;37.442;2023-09-19T02:02:15;100145.97;;;10.88;92.46
56074;BME280;41950;55.840;37.442;2023-09-19T02:04:43;100149.41;;;10.90;92.46
56074;BME280;41950;55.840;37.442;2023-09-19T02:07:09;100157.16;;;10.96;92.53
56074;BME280;41950;55.840;37.442;2023-09-19T02:09:34;100157.16;;;10.93;92.69
56074;BME280;41950;55.840;37.442;2023-09-19T02:12:01;100152.91;;;10.89;92.97
56074;BME280;41950;55.840;37.442;2023-09-19T02:14:29;100156.44;;;10.83;92.67
56074;BME280;41950;55.840;37.442;2023-09-19T02:16:55;100153.03;;;10.78;92.78
56074;BME280;41950;55.840;37.442;2023-09-19T02:19:22;100152.19;;;10.74;92.92
56074;BME280;41950;55.840;37.442;2023-09-19T02:21:47;100153.94;;;10.74;92.93
56074;BME280;41950;55.840;37.442;2023-09-19T02:24:14;100156.56;;;10.68;93.05
56074;BME280;41950;55.840;37.442;2023-09-19T02:26:41;100149.69;;;10.64;93.26
56074;BME280;41950;55.840;37.442;2023-09-19T02:29:07;100147.16;;;10.59;93.18
56074;BME280;41950;55.840;37.442;2023-09-19T02:31:33;100133.41;;;10.51;93.50
56074;BME280;41950;55.840;37.442;2023-09-19T02:33:58;100136.84;;;10.53;93.75
56074;BME280;41950;55.840;37.442;2023-09-19T02:36:26;100064.56;;;10.10;93.46
56074;BME280;41950;55.840;37.442;2023-09-19T02:38:51;100141.19;;;10.51;93.80
56074;BME280;41950;55.840;37.442;2023-09-19T02:41:17;100129.16;;;10.39;93.59
56074;BME280;41950;55.840;37.442;2023-09-19T02:43:42;100145.47;;;10.53;93.68
56074;BME280;41950;55.840;37.442;2023-09-19T02:46:08;100117.06;;;10.38;93.79
56074;BME280;41950;55.840;37.442;2023-09-19T02:48:34;100142.03;;;10.53;93.61
56074;BME280;41950;55.840;37.442;2023-09-19T02:51:01;100135.94;;;10.56;93.74
56074;BME280;41950;55.840;37.442;2023-09-19T02:53:27;100111.88;;;10.41;93.64
56074;BME280;41950;55.840;37.442;2023-09-19T02:55:53;100144.53;;;10.62;93.81
56074;BME280;41950;55.840;37.442;2023-09-19T02:58:18;100141.00;;;10.66;93.55
56074;BME280;41950;55.840;37.442;2023-09-19T03:00:44;100125.59;;;10.51;93.60
56074;BME280;41950;55.840;37.442;2023-09-19T03:03:15;100122.94;;;10.57;93.45
56074;BME280;41950;55.840;37.442;2023-09-19T03:05:44;100131.50;;;10.68;93.40
56074;BME280;41950;55.840;37.442;2023-09-19T03:08:13;100107.44;;;10.51;93.55
56074;BME280;41950;55.840;37.442;2023-09-19T03:10:42;100134.09;;;10.68;93.08
56074;BME280;41950;55.840;37.442;2023-09-19T03:13:08;100121.22;;;10.56;93.23
56074;BME280;41950;55.840;37.442;2023-09-19T03:15:35;100150.44;;;10.76;93.28
56074;BME280;41950;55.840;37.442;2023-09-19T03:18:04;100148.69;;;10.78;93.29
56074;BME280;41950;55.840;37.442;2023-09-19T03:20:31;100147.81;;;10.79;93.08
56074;BME280;41950;55.840;37.442;2023-09-19T03:22:56;100124.63;;;10.63;92.85
56074;BME280;41950;55.840;37.442;2023-09-19T03:25:22;100116.91;;;10.55;92.65
56074;BME280;41950;55.840;37.442;2023-09-19T03:27:48;100153.03;;;10.78;92.49
56074;BME280;41950;55.840;37.442;2023-09-19T03:30:14;100148.75;;;10.72;92.20
56074;BME280;41950;55.840;37.442;2023-09-19T03:32:47;100161.63;;;10.81;91.86
56074;BME280;41950;55.840;37.442;2023-09-19T03:35:15;100131.44;;;10.74;92.19
56074;BME280;41950;55.840;37.442;2023-09-19T03:37:42;100157.22;;;10.90;91.79
56074;BME280;41950;55.840;37.442;2023-09-19T03:40:09;100115.00;;;10.72;91.63
56074;BME280;41950;55.840;37.442;2023-09-19T03:42:39;100145.09;;;10.89;91.29
56074;BME280;41950;55.840;37.442;2023-09-19T03:45:07;100064.31;;;10.38;91.09
56074;BME280;41950;55.840;37.442;2023-09-19T03:47:34;100096.13;;;10.58;91.25
56074;BME280;41950;55.840;37.442;2023-09-19T03:50:00;100135.59;;;10.88;91.26
56074;BME280;41950;55.840;37.442;2023-09-19T03:52:26;100117.66;;;10.69;91.13
56074;BME280;41950;55.840;37.442;2023-09-19T03:54:52;100079.78;;;10.50;91.22
56074;BME280;41950;55.840;37.442;2023-09-19T03:57:17;100139.91;;;10.90;91.24
56074;BME280;41950;55.840;37.442;2023-09-19T03:59:46;100132.91;;;10.94;91.22
56074;BME280;41950;55.840;37.442;2023-09-19T04:02:13;100133.78;;;10.97;91.14
56074;BME280;41950;55.840;37.442;2023-09-19T04:04:51;100120.84;;;10.90;90.94
56074;BME280;41950;55.840;37.442;2023-09-19T04:07:18;100109.63;;;10.88;90.77
56074;BME280;41950;55.840;37.442;2023-09-19T04:09:48;100119.88;;;11.00;90.93
56074;BME280;41950;55.840;37.442;2023-09-19T04:12:14;100124.16;;;11.04;91.01
56074;BME280;41950;55.840;37.442;2023-09-19T04:14:42;100075.16;;;10.76;90.83
56074;BME280;41950;55.840;37.442;2023-09-19T04:17:08;100113.72;;;11.08;90.93
56074;BME280;41950;55.840;37.442;2023-09-19T04:19:35;100118.88;;;11.11;90.57
56074;BME280;41950;55.840;37.442;2023-09-19T04:22:01;100130.06;;;11.15;90.67
56074;BME280;41950;55.840;37.442;2023-09-19T04:24:26;100122.25;;;11.18;90.38
56074;BME280;41950;55.840;37.442;2023-09-19T04:26:52;100107.63;;;11.09;90.65
56074;BME280;41950;55.840;37.442;2023-09-19T04:29:18;100107.56;;;11.14;90.32
56074;BME280;41950;55.840;37.442;2023-09-19T04:31:44;100127.31;;;11.29;90.52
56074;BME280;41950;55.840;37.442;2023-09-19T04:34:12;100114.28;;;11.32;90.46
56074;BME280;41950;55.840;37.442;2023-09-19T04:36:41;100109.03;;;11.35;90.63
56074;BME280;41950;55.840;37.442;2023-09-19T04:39:07;100106.47;;;11.33;90.57
56074;BME280;41950;55.840;37.442;2023-09-19T04:41:33;100113.22;;;11.45;90.17
56074;BME280;41950;55.840;37.442;2023-09-19T04:44:00;100111.44;;;11.49;89.83
56074;BME280;41950;55.840;37.442;2023-09-19T04:46:25;100055.56;;;11.19;89.68
56074;BME280;41950;55.840;37.442;2023-09-19T04:48:51;100100.19;;;11.48;89.42
56074;BME280;41950;55.840;37.442;2023-09-19T04:51:17;100101.91;;;11.49;89.77
56074;BME280;41950;55.840;37.442;2023-09-19T04:53:43;100085.50;;;11.44;89.50
56074;BME280;41950;55.840;37.442;2023-09-19T04:56:09;100101.03;;;11.52;89.67
56074;BME280;41950;55.840;37.442;2023-09-19T04:58:35;100119.00;;;11.65;89.63
56074;BME280;41950;55.840;37.442;2023-09-19T05:01:00;100116.44;;;11.64;89.62
56074;BME280;41950;55.840;37.442;2023-09-19T05:03:27;100083.63;;;11.55;89.37
56074;BME280;41950;55.840;37.442;2023-09-19T05:05:53;100112.75;;;11.80;89.41
56074;BME280;41950;55.840;37.442;2023-09-19T05:08:18;100106.69;;;11.81;89.36
56074;BME280;41950;55.840;37.442;2023-09-19T05:10:44;100081.59;;;11.79;89.18
56074;BME280;41950;55.840;37.442;2023-09-19T05:13:10;100074.59;;;11.82;88.67
56074;BME280;41950;55.840;37.442;2023-09-19T05:15:37;100077.97;;;11.87;88.60
56074;BME280;41950;55.840;37.442;2023-09-19T05:18:04;100103.66;;;12.07;88.62
56074;BME280;41950;55.840;37.442;2023-09-19T05:20:32;100085.59;;;11.98;88.58
56074;BME280;41950;55.840;37.442;2023-09-19T05:22:59;100095.94;;;12.01;88.66
56074;BME280;41950;55.840;37.442;2023-09-19T05:25:30;100091.69;;;11.95;88.95
56074;BME280;41950;55.840;37.442;2023-09-19T05:27:58;100077.19;;;11.82;89.19
56074;BME280;41950;55.840;37.442;2023-09-19T05:30:25;100066.78;;;11.77;89.23
56074;BME280;41950;55.840;37.442;2023-09-19T05:32:53;100073.78;;;11.79;89.55
56074;BME280;41950;55.840;37.442;2023-09-19T05:35:19;100097.88;;;11.90;89.63
56074;BME280;41950;55.840;37.442;2023-09-19T05:37:50;100049.78;;;11.60;89.76
56074;BME280;41950;55.840;37.442;2023-09-19T05:40:19;100090.94;;;11.89;89.89
56074;BME280;41950;55.840;37.442;2023-09-19T05:42:46;100054.66;;;11.81;89.78
56074;BME280;41950;55.840;37.442;2023-09-19T05:45:13;100062.25;;;11.93;89.70
56074;BME280;41950;55.840;37.442;2023-09-19T05:47:42;100075.78;;;12.14;89.68
56074;BME280;41950;55.840;37.442;2023-09-19T05:50:11;100082.41;;;12.31;89.41
56074;BME280;41950;55.840;37.442;2023-09-19T05:52:38;100059.81;;;12.35;88.85
56074;BME280;41950;55.840;37.442;2023-09-19T05:55:07;100079.28;;;12.60;88.58
56074;BME280;41950;55.840;37.442;2023-09-19T05:57:37;100069.63;;;12.65;88.26
56074;BME280;41950;55.840;37.442;2023-09-19T06:00:08;100083.75;;;12.97;87.61
56074;BME280;41950;55.840;37.442;2023-09-19T06:02:36;100078.94;;;13.20;86.80
56074;BME280;41950;55.840;37.442;2023-09-19T06:05:04;100086.28;;;13.42;85.80
56074;BME280;41950;55.840;37.442;2023-09-19T06:07:32;100081.94;;;13.42;85.14
56074;BME280;41950;55.840;37.442;2023-09-19T06:10:05;100077.81;;;13.32;85.14
56074;BME280;41950;55.840;37.442;2023-09-19T06:12:32;100071.00;;;13.26;85.31
56074;BME280;41950;55.840;37.442;2023-09-19T06:15:04;100068.28;;;13.31;85.43
56074;BME280;41950;55.840;37.442;2023-09-19T06:17:31;100035.69;;;13.10;85.42
56074;BME280;41950;55.840;37.442;2023-09-19T06:19:56;100056.03;;;13.35;84.71
56074;BME280;41950;55.840;37.442;2023-09-19T06:22:23;100081.50;;;13.60;84.08
56074;BME280;41950;55.840;37.442;2023-09-19T06:24:50;100076.91;;;13.72;83.59
56074;BME280;41950;55.840;37.442;2023-09-19T06:27:15;100052.50;;;13.74;83.17
56074;BME280;41950;55.840;37.442;2023-09-19T06:29:41;100039.44;;;13.76;83.09
56074;BME280;41950;55.840;37.442;2023-09-19T06:32:10;100059.88;;;13.92;82.56
56074;BME280;41950;55.840;37.442;2023-09-19T06:34:36;100047.50;;;14.01;81.47
56074;BME280;41950;55.840;37.442;2023-09-19T06:37:04;100074.53;;;14.32;80.73
56074;BME280;41950;55.840;37.442;2023-09-19T06:39:31;100038.88;;;14.31;80.32
56074;BME280;41950;55.840;37.442;2023-09-19T06:41:57;100061.56;;;14.62;79.88
56074;BME280;41950;55.840;37.442;2023-09-19T06:44:23;100069.72;;;14.82;79.40
56074;BME280;41950;55.840;37.442;2023-09-19T06:46:50;100072.97;;;14.90;78.78
56074;BME280;41950;55.840;37.442;2023-09-19T06:49:17;100065.94;;;14.92;77.75
56074;BME280;41950;55.840;37.442;2023-09-19T06:51:43;100076.09;;;15.01;77.76
56074;BME280;41950;55.840;37.442;2023-09-19T06:54:10;100078.47;;;15.10;77.46
56074;BME280;41950;55.840;37.442;2023-09-19T06:56:35;100075.56;;;15.20;77.43
56074;BME280;41950;55.840;37.442;2023-09-19T06:59:01;100060.88;;;15.15;77.17
56074;BME280;41950;55.840;37.442;2023-09-19T07:01:29;100064.72;;;15.32;77.02
56074;BME280;41950;55.840;37.442;2023-09-19T07:03:54;100069.00;;;15.36;77.05
56074;BME280;41950;55.840;37.442;2023-09-19T07:06:20;100039.72;;;15.23;77.22
56074;BME280;41950;55.840;37.442;2023-09-19T07:08:46;100061.81;;;15.42;76.55
56074;BME280;41950;55.840;37.442;2023-09-19T07:11:12;100046.97;;;15.43;76.03
56074;BME280;41950;55.840;37.442;2023-09-19T07:13:38;100070.69;;;15.66;75.96
56074;BME280;41950;55.840;37.442;2023-09-19T07:16:04;100010.50;;;15.38;75.13
56074;BME280;41950;55.840;37.442;2023-09-19T07:18:30;100042.97;;;15.59;75.16
56074;BME280;41950;55.840;37.442;2023-09-19T07:20:57;100039.53;;;15.57;75.69
56074;BME280;41950;55.840;37.442;2023-09-19T07:23:31;100049.84;;;15.63;75.93
56074;BME280;41950;55.840;37.442;2023-09-19T07:26:03;100048.22;;;15.58;75.61
56074;BME280;41950;55.840;37.442;2023-09-19T07:28:31;100041.34;;;15.55;75.94
56074;BME280;41950;55.840;37.442;2023-09-19T07:30:56;100049.81;;;15.65;76.06
56074;BME280;41950;55.840;37.442;2023-09-19T07:33:23;100032.44;;;15.62;76.03
56074;BME280;41950;55.840;37.442;2023-09-19T07:35:52;100041.81;;;15.69;76.01
56074;BME280;41950;55.840;37.442;2023-09-19T07:38:17;100042.50;;;15.74;75.79
56074;BME280;41950;55.840;37.442;2023-09-19T07:40:43;100046.47;;;15.86;75.51
56074;BME280;41950;55.840;37.442;2023-09-19T07:43:09;99989.38;;;15.72;74.92
56074;BME280;41950;55.840;37.442;2023-09-19T07:45:35;100031.94;;;16.29;74.22
56074;BME280;41950;55.840;37.442;2023-09-19T07:48:02;100043.53;;;16.72;72.57
56074;BME280;41950;55.840;37.442;2023-09-19T07:50:29;100049.56;;;16.97;71.45
56074;BME280;41950;55.840;37.442;2023-09-19T07:52:55;100032.66;;;17.06;70.85
56074;BME280;41950;55.840;37.442;2023-09-19T07:55:22;100025.81;;;17.02;70.82
56074;BME280;41950;55.840;37.442;2023-09-19T07:57:54;100015.44;;;16.98;70.94
56074;BME280;41950;55.840;37.442;2023-09-19T08:00:20;100031.84;;;17.04;70.90
56074;BME280;41950;55.840;37.442;2023-09-19T08:02:46;100035.09;;;16.87;71.06
56074;BME280;41950;55.840;37.442;2023-09-19T08:05:13;100015.97;;;16.60;71.44
56074;BME280;41950;55.840;37.442;2023-09-19T08:07:43;100032.47;;;16.62;71.40
56074;BME280;41950;55.840;37.442;2023-09-19T08:10:11;100027.88;;;16.45;71.98
56074;BME280;41950;55.840;37.442;2023-09-19T08:12:42;100030.69;;;16.39;72.39
56074;BME280;41950;55.840;37.442;2023-09-19T08:15:21;100039.03;;;16.25;73.21
56074;BME280;41950;55.840;37.442;2023-09-19T08:17:48;100017.00;;;16.06;73.82
56074;BME280;41950;55.840;37.442;2023-09-19T08:20:14;100029.56;;;15.96;74.52
56074;BME280;41950;55.840;37.442;2023-09-19T08:22:48;100032.47;;;15.87;75.09
56074;BME280;41950;55.840;37.442;2023-09-19T08:25:18;100019.84;;;15.73;75.45
56074;BME280;41950;55.840;37.442;2023-09-19T08:27:46;99975.53;;;15.41;75.82
56074;BME280;41950;55.840;37.442;2023-09-19T08:30:16;99971.28;;;15.38;76.37
56074;BME280;41950;55.840;37.442;2023-09-19T08:32:43;99977.34;;;15.39;76.50
56074;BME280;41950;55.840;37.442;2023-09-19T08:35:12;100009.88;;;15.58;76.92
56074;BME280;41950;55.840;37.442;2023-09-19T08:37:37;99966.09;;;15.37;77.20
56074;BME280;41950;55.840;37.442;2023-09-19T08:40:03;100004.53;;;15.63;77.39
56074;BME280;41950;55.840;37.442;2023-09-19T08:42:31;99992.41;;;15.59;77.40
56074;BME280;41950;55.840;37.442;2023-09-19T08:44:57;99986.25;;;15.61;77.30
56074;BME280;41950;55.840;37.442;2023-09-19T08:47:45;99990.38;;;15.68;76.06
56074;BME280;41950;55.840;37.442;2023-09-19T08:50:19;99998.88;;;15.75;76.23
56074;BME280;41950;55.840;37.442;2023-09-19T08:52:46;99976.50;;;15.66;75.90
56074;BME280;41950;55.840;37.442;2023-09-19T08:55:15;99978.69;;;15.79;76.16
56074;BME280;41950;55.840;37.442;2023-09-19T08:57:51;99951.06;;;15.70;75.99
56074;BME280;41950;55.840;37.442;2023-09-19T09:00:18;99978.34;;;15.88;75.56
56074;BME280;41950;55.840;37.442;2023-09-19T09:02:46;100001.94;;;16.13;75.05
56074;BME280;41950;55.840;37.442;2023-09-19T09:05:13;99978.59;;;16.06;74.77
56074;BME280;41950;55.840;37.442;2023-09-19T09:07:41;100003.97;;;16.29;74.46
56074;BME280;41950;55.840;37.442;2023-09-19T09:10:07;99999.13;;;16.44;74.59
56074;BME280;41950;55.840;37.442;2023-09-19T09:12:34;99958.41;;;16.33;74.24
56074;BME280;41950;55.840;37.442;2023-09-19T09:15:02;99966.00;;;16.41;73.64
56074;BME280;41950;55.840;37.442;2023-09-19T09:17:31;100012.19;;;16.68;73.77
56074;BME280;41950;55.840;37.442;2023-09-19T09:19:57;99984.31;;;16.66;73.27
56074;BME280;41950;55.840;37.442;2023-09-19T09:22:22;99970.44;;;16.62;73.23
56074;BME280;41950;55.840;37.442;2023-09-19T09:24:57;100000.50;;;17.01;73.12
56074;BME280;41950;55.840;37.442;2023-09-19T09:27:31;99997.63;;;17.07;73.03
56074;BME280;41950;55.840;37.442;2023-09-19T09:29:59;100006.91;;;17.15;72.29
56074;BME280;41950;55.840;37.442;2023-09-19T09:32:29;99978.13;;;17.14;72.07
56074;BME280;41950;55.840;37.442;2023-09-19T09:35:00;99986.84;;;17.36;71.62
56074;BME280;41950;55.840;37.442;2023-09-19T09:37:27;99980.03;;;17.52;70.85
56074;BME280;41950;55.840;37.442;2023-09-19T09:39:59;99973.16;;;17.72;70.69
56074;BME280;41950;55.840;37.442;2023-09-19T09:42:45;99938.13;;;17.73;69.83
56074;BME280;41950;55.840;37.442;2023-09-19T09:45:22;99977.97;;;18.03;68.87
56074;BME280;41950;55.840;37.442;2023-09-19T09:48:03;99975.34;;;18.03;69.26
56074;BME280;41950;55.840;37.442;2023-09-19T09:50:34;99966.75;;;17.99;69.11
56074;BME280;41950;55.840;37.442;2023-09-19T09:53:31;99943.38;;;17.93;69.02
56074;BME280;41950;55.840;37.442;2023-09-19T09:56:09;99926.31;;;17.83;68.46
56074;BME280;41950;55.840;37.442;2023-09-19T09:58:36;99970.69;;;18.09;68.70
56074;BME280;41950;55.840;37.442;2023-09-19T10:01:03;99914.22;;;17.79;68.77
56074;BME280;41950;55.840;37.442;2023-09-19T10:03:42;99897.38;;;17.84;68.91
56074;BME280;41950;55.840;37.442;2023-09-19T10:06:17;99895.88;;;18.18;68.28
56074;BME280;41950;55.840;37.442;2023-09-19T10:11:26;99933.78;;;18.89;65.86
56074;BME280;41950;55.840;37.442;2023-09-19T10:13:57;99944.50;;;19.03;65.42
56074;BME280;41950;55.840;37.442;2023-09-19T10:16:23;99872.16;;;18.57;66.54
56074;BME280;41950;55.840;37.442;2023-09-19T10:18:50;99940.56;;;19.12;66.56
56074;BME280;41950;55.840;37.442;2023-09-19T10:21:19;99924.53;;;18.99;66.66
56074;BME280;41950;55.840;37.442;2023-09-19T10:23:50;99926.16;;;19.02;66.29
56074;BME280;41950;55.840;37.442;2023-09-19T10:26:18;99936.16;;;19.12;67.01
56074;BME280;41950;55.840;37.442;2023-09-19T10:28:46;99868.47;;;18.80;65.93
56074;BME280;41950;55.840;37.442;2023-09-19T10:31:19;99933.66;;;19.28;65.90
56074;BME280;41950;55.840;37.442;2023-09-19T10:33:47;99850.84;;;18.82;65.20
56074;BME280;41950;55.840;37.442;2023-09-19T10:36:15;99914.22;;;19.31;65.60
56074;BME280;41950;55.840;37.442;2023-09-19T10:38:43;99928.63;;;19.41;65.64
56074;BME280;41950;55.840;37.442;2023-09-19T10:41:14;99908.41;;;19.41;64.90
56074;BME280;41950;55.840;37.442;2023-09-19T10:43:42;99920.63;;;19.61;65.17
56074;BME280;41950;55.840;37.442;2023-09-19T10:46:12;99915.72;;;19.88;64.92
56074;BME280;41950;55.840;37.442;2023-09-19T10:48:41;99931.19;;;20.12;63.22
56074;BME280;41950;55.840;37.442;2023-09-19T10:51:16;99924.13;;;20.29;63.23
56074;BME280;41950;55.840;37.442;2023-09-19T10:53:51;99927.59;;;20.63;61.17
56074;BME280;41950;55.840;37.442;2023-09-19T10:56:26;99922.94;;;20.84;60.57
56074;BME280;41950;55.840;37.442;2023-09-19T10:59:15;99886.72;;;21.02;59.04
56074;BME280;41950;55.840;37.442;2023-09-19T11:04:32;99915.00;;;22.34;56.91
56074;BME280;41950;55.840;37.442;2023-09-19T11:09:47;99866.59;;;23.41;53.62
56074;BME280;41950;55.840;37.442;2023-09-19T11:15:07;99896.25;;;24.24;50.46
56074;BME280;41950;55.840;37.442;2023-09-19T11:17:34;99903.59;;;24.46;50.70
56074;BME280;41950;55.840;37.442;2023-09-19T11:30:41;99875.13;;;25.32;47.51
56074;BME280;41950;55.840;37.442;2023-09-19T11:33:25;99882.72;;;25.61;46.15
56074;BME280;41950;55.840;37.442;2023-09-19T11:36:10;99875.44;;;25.98;45.28
56074;BME280;41950;55.840;37.442;2023-09-19T11:43:52;99863.75;;;26.34;45.23
56074;BME280;41950;55.840;37.442;2023-09-19T11:46:21;99845.44;;;26.29;44.56
56074;BME280;41950;55.840;37.442;2023-09-19T11:48:48;99857.91;;;26.51;43.96
56074;BME280;41950;55.840;37.442;2023-09-19T11:51:25;99842.34;;;26.78;43.55
56074;BME280;41950;55.840;37.442;2023-09-19T11:53:55;99844.44;;;26.75;43.65
56074;BME280;41950;55.840;37.442;2023-09-19T11:56:23;99850.66;;;26.96;43.72
56074;BME280;41950;55.840;37.442;2023-09-19T11:58:52;99852.59;;;27.05;43.82
56074;BME280;41950;55.840;37.442;2023-09-19T12:01:32;99835.13;;;27.13;43.56
56074;BME280;41950;55.840;37.442;2023-09-19T12:04:00;99837.41;;;27.17;43.49
56074;BME280;41950;55.840;37.442;2023-09-19T12:06:28;99843.28;;;27.00;43.22
56074;BME280;41950;55.840;37.442;2023-09-19T12:08:58;99832.22;;;26.72;43.86
56074;BME280;41950;55.840;37.442;2023-09-19T12:11:29;99833.09;;;26.62;44.61
56074;BME280;41950;55.840;37.442;2023-09-19T12:13:59;99821.09;;;26.56;44.61
56074;BME280;41950;55.840;37.442;2023-09-19T12:16:29;99798.53;;;26.17;45.09
56074;BME280;41950;55.840;37.442;2023-09-19T12:19:17;99829.72;;;26.26;45.34
56074;BME280;41950;55.840;37.442;2023-09-19T12:22:02;99817.06;;;26.07;46.21
56074;BME280;41950;55.840;37.442;2023-09-19T12:24:31;99791.91;;;25.78;47.43
56074;BME280;41950;55.840;37.442;2023-09-19T12:27:02;99808.69;;;25.67;47.65
56074;BME280;41950;55.840;37.442;2023-09-19T12:29:31;99807.41;;;25.38;47.94
56074;BME280;41950;55.840;37.442;2023-09-19T12:31:59;99806.28;;;25.29;47.78
56074;BME280;41950;55.840;37.442;2023-09-19T12:34:30;99774.66;;;25.37;47.32
56074;BME280;41950;55.840;37.442;2023-09-19T12:37:10;99806.31;;;25.75;47.13
56074;BME280;41950;55.840;37.442;2023-09-19T12:40:08;99780.78;;;25.73;46.88
56074;BME280;41950;55.840;37.442;2023-09-19T12:42:44;99797.81;;;25.93;46.08
56074;BME280;41950;55.840;37.442;2023-09-19T12:45:11;99797.69;;;25.94;46.75
56074;BME280;41950;55.840;37.442;2023-09-19T12:47:39;99784.19;;;25.86;46.39
56074;BME280;41950;55.840;37.442;2023-09-19T12:50:13;99782.94;;;26.01;46.27
56074;BME280;41950;55.840;37.442;2023-09-19T12:52:41;99774.28;;;25.77;46.87
56074;BME280;41950;55.840;37.442;2023-09-19T12:55:07;99785.63;;;25.21;48.34
56074;BME280;41950;55.840;37.442;2023-09-19T12:57:35;99783.41;;;24.56;50.04
56074;BME280;41950;55.840;37.442;2023-09-19T13:00:05;99779.84;;;24.45;50.25
56074;BME280;41950;55.840;37.442;2023-09-19T13:02:37;99765.59;;;24.09;51.32
56074;BME280;41950;55.840;37.442;2023-09-19T13:05:03;99762.28;;;23.69;51.93
56074;BME280;41950;55.840;37.442;2023-09-19T13:07:45;99752.06;;;23.25;53.62
56074;BME280;41950;55.840;37.442;2023-09-19T13:10:13;99779.44;;;22.98;54.60
56074;BME280;41950;55.840;37.442;2023-09-19T13:12:43;99771.16;;;22.63;55.59
56074;BME280;41950;55.840;37.442;2023-09-19T13:15:14;99771.25;;;22.49;56.33
56074;BME280;41950;55.840;37.442;2023-09-19T13:17:45;99766.69;;;22.51;57.12
56074;BME280;41950;55.840;37.442;2023-09-19T13:20:25;99757.31;;;22.60;57.51
56074;BME280;41950;55.840;37.442;2023-09-19T13:22:55;99751.47;;;22.55;57.63
56074;BME280;41950;55.840;37.442;2023-09-19T13:25:26;99753.81;;;22.59;58.04
56074;BME280;41950;55.840;37.442;2023-09-19T13:27:56;99754.63;;;22.47;58.15